createdAt,value
2019-02-27T00:00:47.641Z,23.65
2019-02-27T00:03:16.230Z,21.95
2019-02-27T00:05:44.810Z,21.10
2019-02-27T00:08:13.394Z,21.17
2019-02-27T00:10:41.979Z,20.68
2019-02-27T00:13:10.559Z,20.80
2019-02-27T00:15:39.146Z,19.52
2019-02-27T00:18:07.831Z,23.80
2019-02-27T00:20:37.081Z,22.58
2019-02-27T00:23:06.427Z,19.90
2019-02-27T00:25:36.148Z,20.10
2019-02-27T00:28:05.436Z,21.10
2019-02-27T00:30:38.112Z,20.55
2019-02-27T00:33:07.313Z,19.82
2019-02-27T00:35:38.841Z,23.00
2019-02-27T00:38:05.914Z,21.05
2019-02-27T00:40:38.423Z,20.85
2019-02-27T00:43:04.721Z,19.42
2019-02-27T00:45:33.305Z,20.88
2019-02-27T00:48:01.886Z,21.77
2019-02-27T00:50:30.472Z,20.88
2019-02-27T00:52:59.053Z,20.20
2019-02-27T00:55:27.636Z,19.90
2019-02-27T00:57:56.219Z,21.20
2019-02-27T01:00:24.702Z,20.27
2019-02-27T01:02:53.689Z,19.45
2019-02-27T01:05:22.482Z,19.05
2019-02-27T01:07:53.985Z,18.85
2019-02-27T01:10:21.183Z,20.32
2019-02-27T01:12:49.767Z,19.27
2019-02-27T01:15:18.351Z,19.32
2019-02-27T01:17:47.036Z,19.25
2019-02-27T01:20:15.944Z,19.42
2019-02-27T01:22:44.613Z,20.43
2019-02-27T01:25:13.198Z,21.15
2019-02-27T01:27:41.677Z,24.00
2019-02-27T01:30:17.944Z,21.73
2019-02-27T01:32:46.422Z,20.48
2019-02-27T01:35:17.858Z,19.55
2019-02-27T01:37:47.889Z,20.15
2019-02-27T01:40:17.828Z,23.07
2019-02-27T01:42:46.900Z,20.90
2019-02-27T01:45:20.817Z,20.52
2019-02-27T01:47:46.431Z,20.17
2019-02-27T01:50:32.094Z,20.85
2019-02-27T01:53:00.692Z,19.95
2019-02-27T01:55:29.171Z,20.85
2019-02-27T01:57:57.753Z,19.40
2019-02-27T02:00:26.273Z,19.42
2019-02-27T02:02:54.920Z,20.10
2019-02-27T02:05:26.115Z,18.85
2019-02-27T02:07:53.506Z,18.73
2019-02-27T02:10:22.103Z,19.80
2019-02-27T02:12:59.700Z,20.70
2019-02-27T02:15:46.304Z,21.80
2019-02-27T02:18:29.837Z,19.98
2019-02-27T02:21:07.418Z,19.50
2019-02-27T02:23:44.944Z,19.62
2019-02-27T02:26:35.124Z,22.30
2019-02-27T02:29:22.232Z,22.35
2019-02-27T02:31:59.826Z,20.65
2019-02-27T02:34:40.125Z,20.08
2019-02-27T02:37:23.208Z,19.57
2019-02-27T02:40:00.905Z,19.92
2019-02-27T02:42:41.588Z,24.23
2019-02-27T02:45:33.060Z,24.05
2019-02-27T02:48:19.918Z,21.73
2019-02-27T02:51:14.543Z,21.10
2019-02-27T02:54:19.571Z,22.27
2019-02-27T02:57:13.934Z,21.48
2019-02-27T03:00:01.078Z,20.97
2019-02-27T03:02:48.919Z,19.77
2019-02-27T03:05:23.647Z,20.95
2019-02-27T03:08:20.064Z,21.02
2019-02-27T03:10:56.100Z,22.35
2019-02-27T03:13:49.155Z,20.95
2019-02-27T03:16:21.015Z,21.12
2019-02-27T03:19:05.055Z,23.98
2019-02-27T03:21:37.945Z,20.05
2019-02-27T03:24:27.914Z,19.80
2019-02-27T03:27:10.143Z,20.72
2019-02-27T03:29:58.267Z,21.62
2019-02-27T03:32:47.955Z,21.45
2019-02-27T03:35:34.868Z,20.12
2019-02-27T03:38:09.698Z,21.37
2019-02-27T03:41:05.434Z,21.20
2019-02-27T03:44:03.080Z,22.87
2019-02-27T03:46:43.350Z,20.50
2019-02-27T03:49:30.250Z,20.68
2019-02-27T03:52:17.374Z,21.82
2019-02-27T03:54:57.032Z,20.88
2019-02-27T03:57:27.747Z,20.57
2019-02-27T04:00:02.259Z,21.65
2019-02-27T04:02:49.284Z,21.20
2019-02-27T04:05:23.807Z,22.77
2019-02-27T04:07:58.328Z,21.27
2019-02-27T04:10:30.917Z,21.52
2019-02-27T04:12:58.302Z,22.90
2019-02-27T04:15:27.151Z,23.20
2019-02-27T04:17:54.916Z,20.48
2019-02-27T04:20:23.396Z,19.73
2019-02-27T04:22:51.982Z,20.90
2019-02-27T04:25:20.575Z,20.70
2019-02-27T04:27:49.149Z,19.80
2019-02-27T04:30:17.845Z,20.45
2019-02-27T04:32:48.657Z,18.67
2019-02-27T04:35:16.740Z,19.27
2019-02-27T04:37:45.327Z,17.62
2019-02-27T04:40:13.909Z,19.30
2019-02-27T04:42:42.592Z,19.02
2019-02-27T04:45:12.360Z,19.17
2019-02-27T04:47:41.705Z,17.32
2019-02-27T04:50:11.328Z,17.12
2019-02-27T04:52:40.510Z,18.55
2019-02-27T04:55:08.991Z,18.40
2019-02-27T04:57:37.572Z,18.02
2019-02-27T05:00:09.128Z,17.67
2019-02-27T05:02:37.732Z,18.50
2019-02-27T05:05:08.564Z,20.08
2019-02-27T05:07:37.847Z,19.65
2019-02-27T05:10:08.670Z,17.92
2019-02-27T05:12:37.265Z,18.07
2019-02-27T05:15:08.010Z,17.90
2019-02-27T05:17:37.126Z,17.35
2019-02-27T05:20:11.597Z,19.30
2019-02-27T05:22:38.673Z,15.90
2019-02-27T05:25:07.359Z,16.02
2019-02-27T05:27:36.040Z,16.10
2019-02-27T05:30:07.185Z,13.78
2019-02-27T05:32:36.074Z,12.75
2019-02-27T05:35:04.968Z,12.10
2019-02-27T05:37:36.078Z,11.75
2019-02-27T05:40:05.600Z,11.20
2019-02-27T05:42:34.099Z,10.03
2019-02-27T05:45:02.781Z,10.20
2019-02-27T05:47:31.465Z,8.85
2019-02-27T05:50:00.473Z,9.08
2019-02-27T05:52:30.270Z,8.75
2019-02-27T05:54:58.746Z,9.05
2019-02-27T05:57:27.441Z,8.95
2019-02-27T05:59:56.126Z,9.48
2019-02-27T06:02:25.541Z,9.70
2019-02-27T06:04:56.148Z,10.50
2019-02-27T06:07:24.853Z,10.00
2019-02-27T06:09:53.542Z,8.95
2019-02-27T06:12:22.212Z,8.65
2019-02-27T06:14:54.860Z,7.92
2019-02-27T06:17:21.035Z,7.95
2019-02-27T06:19:49.522Z,7.25
2019-02-27T06:22:17.979Z,8.13
2019-02-27T06:24:46.667Z,7.08
2019-02-27T06:27:39.456Z,8.10
2019-02-27T06:30:13.936Z,6.97
2019-02-27T06:32:43.770Z,6.37
2019-02-27T06:35:14.014Z,6.87
2019-02-27T06:37:42.666Z,5.95
2019-02-27T06:40:14.499Z,7.10
2019-02-27T06:42:43.207Z,6.87
2019-02-27T06:45:14.069Z,7.08
2019-02-27T06:47:42.830Z,7.47
2019-02-27T06:50:15.873Z,7.15
2019-02-27T06:52:44.502Z,7.90
2019-02-27T06:55:14.189Z,8.23
2019-02-27T06:57:42.796Z,8.65
2019-02-27T07:00:14.655Z,8.30
2019-02-27T07:02:43.237Z,8.10
2019-02-27T07:05:13.471Z,8.03
2019-02-27T07:07:42.560Z,8.23
2019-02-27T07:10:13.801Z,8.80
2019-02-27T07:12:42.524Z,7.90
2019-02-27T07:15:16.603Z,8.35
2019-02-27T07:17:45.079Z,8.85
2019-02-27T07:20:15.145Z,8.98
2019-02-27T07:22:46.577Z,9.65
2019-02-27T07:25:16.649Z,8.10
2019-02-27T07:27:45.122Z,8.53
2019-02-27T07:30:16.901Z,8.63
2019-02-27T07:32:45.690Z,9.35
2019-02-27T07:35:16.370Z,8.78
2019-02-27T07:37:47.519Z,7.80
2019-02-27T07:40:19.003Z,8.95
2019-02-27T07:45:22.560Z,9.05
2019-02-27T07:47:51.016Z,9.23
2019-02-27T07:50:21.852Z,9.10
2019-02-27T07:52:51.988Z,9.50
2019-02-27T07:55:23.009Z,9.63
2019-02-27T07:57:50.773Z,9.70
2019-02-27T08:00:23.565Z,9.35
2019-02-27T08:02:52.138Z,8.58
2019-02-27T08:05:20.823Z,8.63
2019-02-27T08:07:49.940Z,9.65
2019-02-27T08:10:20.472Z,10.58
2019-02-27T08:12:49.031Z,11.68
2019-02-27T08:15:19.216Z,11.90
2019-02-27T08:17:47.962Z,10.55
2019-02-27T08:20:20.004Z,11.50
2019-02-27T08:22:48.255Z,10.85
2019-02-27T08:25:18.807Z,9.80
2019-02-27T08:27:47.391Z,11.57
2019-02-27T08:30:21.712Z,10.75
2019-02-27T08:32:50.293Z,11.20
2019-02-27T08:35:18.775Z,10.28
2019-02-27T08:37:47.478Z,10.45
2019-02-27T08:40:16.045Z,10.30
2019-02-27T08:42:44.626Z,11.53
2019-02-27T08:45:20.983Z,10.88
2019-02-27T08:47:49.778Z,10.95
2019-02-27T08:50:19.923Z,11.60
2019-02-27T08:52:51.494Z,11.22
2019-02-27T08:55:22.281Z,11.57
2019-02-27T08:57:50.111Z,10.38
2019-02-27T09:00:26.316Z,11.50
2019-02-27T09:02:55.724Z,12.25
2019-02-27T09:05:24.636Z,11.55
2019-02-27T09:07:53.196Z,11.43
2019-02-27T09:10:26.680Z,11.08
2019-02-27T09:13:04.425Z,11.83
2019-02-27T09:15:24.575Z,11.08
2019-02-27T09:17:53.055Z,12.37
2019-02-27T09:20:22.296Z,11.53
2019-02-27T09:22:50.937Z,11.25
2019-02-27T09:25:23.616Z,11.65
2019-02-27T09:27:49.754Z,11.60
2019-02-27T09:30:28.631Z,12.75
2019-02-27T09:32:53.670Z,11.53
2019-02-27T09:35:22.135Z,11.73
2019-02-27T09:37:51.412Z,11.20
2019-02-27T09:40:25.093Z,12.40
2019-02-27T09:42:53.919Z,12.50
2019-02-27T09:45:27.938Z,12.85
2019-02-27T09:47:59.538Z,12.95
2019-02-27T09:50:30.237Z,13.30
2019-02-27T09:53:01.030Z,12.03
2019-02-27T09:55:29.044Z,11.65
2019-02-27T09:57:57.613Z,11.95
2019-02-27T10:00:33.308Z,12.82
2019-02-27T10:03:02.165Z,12.70
2019-02-27T10:05:30.780Z,11.63
2019-02-27T10:07:59.332Z,12.58
2019-02-27T10:10:27.916Z,12.63
2019-02-27T10:12:56.397Z,12.23
2019-02-27T10:15:25.251Z,12.70
2019-02-27T10:17:54.688Z,12.65
2019-02-27T10:20:23.173Z,12.40
2019-02-27T10:22:53.380Z,14.10
2019-02-27T10:25:21.973Z,14.35
2019-02-27T10:27:50.559Z,12.53
2019-02-27T10:30:19.040Z,12.50
2019-02-27T10:32:47.626Z,13.48
2019-02-27T10:35:16.722Z,13.28
2019-02-27T10:37:50.383Z,13.08
2019-02-27T10:40:22.783Z,12.43
2019-02-27T10:42:51.486Z,12.53
2019-02-27T10:45:20.073Z,13.50
2019-02-27T10:47:48.853Z,13.40
2019-02-27T10:50:17.460Z,13.30
2019-02-27T10:52:46.015Z,13.48
2019-02-27T10:55:17.052Z,13.38
2019-02-27T10:57:45.744Z,14.03
2019-02-27T11:00:33.171Z,13.13
2019-02-27T11:03:02.147Z,13.30
2019-02-27T11:05:38.924Z,13.25
2019-02-27T11:08:07.621Z,12.63
2019-02-27T11:10:36.205Z,12.95
2019-02-27T11:13:06.821Z,14.10
2019-02-27T11:15:34.994Z,13.58
2019-02-27T11:18:05.483Z,12.93
2019-02-27T11:20:34.134Z,13.08
2019-02-27T11:23:06.763Z,13.83
2019-02-27T11:25:33.018Z,13.55
2019-02-27T11:28:01.825Z,12.82
2019-02-27T11:30:36.946Z,13.08
2019-02-27T11:33:05.849Z,13.98
2019-02-27T11:35:34.434Z,13.55
2019-02-27T11:38:03.139Z,13.88
2019-02-27T11:40:31.700Z,13.62
2019-02-27T11:43:01.126Z,14.53
2019-02-27T11:45:30.097Z,13.50
2019-02-27T11:47:58.669Z,14.78
2019-02-27T11:50:27.259Z,14.58
2019-02-27T11:53:01.817Z,13.75
2019-02-27T11:55:27.189Z,14.18
2019-02-27T11:57:55.672Z,14.15
2019-02-27T12:00:31.832Z,15.85
2019-02-27T12:03:00.417Z,14.43
2019-02-27T12:05:33.812Z,14.90
2019-02-27T12:07:59.527Z,15.23
2019-02-27T12:10:31.911Z,15.50
2019-02-27T12:13:02.258Z,15.25
2019-02-27T12:15:30.909Z,15.10
2019-02-27T12:18:01.791Z,15.35
2019-02-27T12:20:29.921Z,15.88
2019-02-27T12:22:58.400Z,15.70
2019-02-27T12:25:29.725Z,16.77
2019-02-27T12:27:57.513Z,16.45
2019-02-27T12:30:30.574Z,16.85
2019-02-27T12:32:59.088Z,17.45
2019-02-27T12:35:35.779Z,17.00
2019-02-27T12:38:08.198Z,18.55
2019-02-27T12:40:35.279Z,17.63
2019-02-27T12:43:04.681Z,18.50
2019-02-27T12:45:34.142Z,17.73
2019-02-27T12:48:04.479Z,18.57
2019-02-27T12:50:33.406Z,17.35
2019-02-27T12:53:02.290Z,18.57
2019-02-27T12:55:35.448Z,17.75
2019-02-27T12:58:06.387Z,18.17
2019-02-27T13:00:35.729Z,19.12
2019-02-27T13:03:08.403Z,17.15
2019-02-27T13:05:34.529Z,19.05
2019-02-27T13:08:03.010Z,18.87
2019-02-27T13:10:34.050Z,19.70
2019-02-27T13:13:01.722Z,19.15
2019-02-27T13:15:30.804Z,19.42
2019-02-27T13:17:59.389Z,19.40
2019-02-27T13:20:29.477Z,19.87
2019-02-27T13:22:58.093Z,21.17
2019-02-27T13:25:26.674Z,20.20
2019-02-27T13:27:55.462Z,20.02
2019-02-27T13:30:25.100Z,19.98
2019-02-27T13:32:53.769Z,19.80
2019-02-27T13:35:22.968Z,20.40
2019-02-27T13:37:52.670Z,20.25
2019-02-27T13:40:24.525Z,20.68
2019-02-27T13:42:53.797Z,20.97
2019-02-27T13:45:24.355Z,20.12
2019-02-27T13:47:53.037Z,20.70
2019-02-27T13:50:23.597Z,20.45
2019-02-27T13:52:52.369Z,20.25
2019-02-27T13:55:22.362Z,20.08
2019-02-27T13:57:51.067Z,22.80
2019-02-27T14:00:30.466Z,20.85
2019-02-27T14:02:58.977Z,21.37
2019-02-27T14:05:29.314Z,20.97
2019-02-27T14:07:58.761Z,20.50
2019-02-27T14:10:31.747Z,20.57
2019-02-27T14:13:00.276Z,20.55
2019-02-27T14:15:28.894Z,21.97
2019-02-27T14:17:57.643Z,21.10
2019-02-27T14:20:26.927Z,21.17
2019-02-27T14:22:55.857Z,20.30
2019-02-27T14:25:31.857Z,20.05
2019-02-27T14:27:57.509Z,20.23
2019-02-27T14:30:29.163Z,19.42
2019-02-27T14:35:25.718Z,20.82
2019-02-27T14:37:54.369Z,21.20
2019-02-27T14:40:22.883Z,19.95
2019-02-27T14:42:54.850Z,19.17
2019-02-27T14:45:23.482Z,19.57
2019-02-27T14:47:52.114Z,19.82
2019-02-27T14:50:24.389Z,19.52
2019-02-27T14:52:53.071Z,19.75
2019-02-27T14:55:22.577Z,19.77
2019-02-27T14:57:51.541Z,19.80
2019-02-27T15:00:37.045Z,20.17
2019-02-27T15:03:04.503Z,19.65
2019-02-27T15:05:33.192Z,20.72
2019-02-27T15:08:01.773Z,19.73
2019-02-27T15:10:30.587Z,20.70
2019-02-27T15:12:59.351Z,22.05
2019-02-27T15:15:31.717Z,20.62
2019-02-27T15:18:00.612Z,20.00
2019-02-27T15:20:30.264Z,20.72
2019-02-27T15:22:58.907Z,23.75
2019-02-27T15:25:27.919Z,21.77
2019-02-27T15:27:58.815Z,21.57
2019-02-27T15:30:31.113Z,20.52
2019-02-27T15:33:03.998Z,23.22
2019-02-27T15:35:30.223Z,21.70
2019-02-27T15:37:59.327Z,19.45
2019-02-27T15:40:38.486Z,20.95
2019-02-27T15:43:11.364Z,20.37
2019-02-27T15:45:47.456Z,20.95
2019-02-27T15:48:08.293Z,20.65
2019-02-27T15:50:37.082Z,20.62
2019-02-27T15:53:05.559Z,22.20
2019-02-27T15:55:35.218Z,19.65
2019-02-27T15:58:04.061Z,20.88
2019-02-27T16:00:32.754Z,21.80
2019-02-27T16:03:01.345Z,20.55
2019-02-27T16:05:31.218Z,21.05
2019-02-27T16:08:00.146Z,20.50
2019-02-27T16:10:29.274Z,24.23
2019-02-27T16:13:01.037Z,20.48
2019-02-27T16:15:28.254Z,21.62
2019-02-27T16:17:56.822Z,22.32
2019-02-27T16:20:28.887Z,21.10
2019-02-27T16:22:57.373Z,21.27
2019-02-27T16:25:28.203Z,21.17
2019-02-27T16:27:56.685Z,22.02
2019-02-27T16:30:31.132Z,21.23
2019-02-27T16:32:58.317Z,22.40
2019-02-27T16:35:26.835Z,20.88
2019-02-27T16:37:57.502Z,22.35
2019-02-27T16:40:27.037Z,21.57
2019-02-27T16:42:55.659Z,20.97
2019-02-27T16:45:36.974Z,20.50
2019-02-27T16:48:05.841Z,20.75
2019-02-27T16:50:34.519Z,21.68
2019-02-27T16:53:03.104Z,20.20
2019-02-27T16:55:35.713Z,22.55
2019-02-27T16:58:02.212Z,21.97
2019-02-27T17:00:31.946Z,22.07
2019-02-27T17:03:00.504Z,22.32
2019-02-27T17:05:29.089Z,20.75
2019-02-27T17:08:02.013Z,22.60
2019-02-27T17:10:37.213Z,21.55
2019-02-27T17:13:05.906Z,21.25
2019-02-27T17:15:35.813Z,22.80
2019-02-27T17:18:04.604Z,21.82
2019-02-27T17:20:33.189Z,22.55
2019-02-27T17:23:07.667Z,21.73
2019-02-27T17:25:31.990Z,22.05
2019-02-27T17:28:00.575Z,21.50
2019-02-27T17:30:37.961Z,21.25
2019-02-27T17:33:06.901Z,21.15
2019-02-27T17:35:35.438Z,22.30
2019-02-27T17:38:04.063Z,20.90
2019-02-27T17:40:36.269Z,21.87
2019-02-27T17:43:02.933Z,21.80
2019-02-27T17:45:31.520Z,21.30
2019-02-27T17:47:59.992Z,21.87
2019-02-27T17:50:31.652Z,21.85
2019-02-27T17:52:58.900Z,24.37
2019-02-27T17:55:27.484Z,23.98
2019-02-27T17:57:58.496Z,24.00
2019-02-27T18:00:31.715Z,22.60
2019-02-27T18:03:00.302Z,21.73
2019-02-27T18:05:28.895Z,23.25
2019-02-27T18:07:57.468Z,22.98
2019-02-27T18:10:26.049Z,23.90
2019-02-27T18:12:54.529Z,21.25
2019-02-27T18:15:24.375Z,23.52
2019-02-27T18:17:53.719Z,22.70
2019-02-27T18:20:25.552Z,23.35
2019-02-27T18:22:54.387Z,23.02
2019-02-27T18:25:25.025Z,22.87
2019-02-27T18:27:58.514Z,24.12
2019-02-27T18:30:25.852Z,23.60
2019-02-27T18:32:56.190Z,24.37
2019-02-27T18:35:29.774Z,23.50
2019-02-27T18:38:01.634Z,23.83
2019-02-27T18:40:32.961Z,23.47
2019-02-27T18:43:05.809Z,24.18
2019-02-27T18:45:35.288Z,22.77
2019-02-27T18:48:03.881Z,24.00
2019-02-27T18:50:32.467Z,25.62
2019-02-27T18:53:01.048Z,26.70
2019-02-27T18:55:31.068Z,28.00
2019-02-27T18:57:59.864Z,26.17
2019-02-27T19:00:29.450Z,26.52
2019-02-27T19:03:09.927Z,25.80
2019-02-27T19:05:41.802Z,26.35
2019-02-27T19:08:08.626Z,23.92
2019-02-27T19:10:41.415Z,25.50
2019-02-27T19:13:07.533Z,26.68
2019-02-27T19:15:36.134Z,23.42
2019-02-27T19:18:06.653Z,26.95
2019-02-27T19:20:40.750Z,28.45
2019-02-27T19:23:09.341Z,29.65
2019-02-27T19:25:37.835Z,27.25
2019-02-27T19:28:06.510Z,27.07
2019-02-27T19:30:35.002Z,28.32
2019-02-27T19:33:03.572Z,28.50
2019-02-27T19:35:32.163Z,29.37
2019-02-27T19:38:00.843Z,28.35
2019-02-27T19:40:30.471Z,27.37
2019-02-27T19:43:01.809Z,29.95
2019-02-27T19:45:30.255Z,27.93
2019-02-27T19:47:58.749Z,27.98
2019-02-27T19:50:27.729Z,27.65
2019-02-27T19:52:56.180Z,29.57
2019-02-27T19:55:27.309Z,28.42
2019-02-27T19:57:55.040Z,28.92
2019-02-27T20:00:25.929Z,27.42
2019-02-27T20:02:56.090Z,28.05
2019-02-27T20:05:24.886Z,26.33
2019-02-27T20:07:53.862Z,27.65
2019-02-27T20:10:22.461Z,25.95
2019-02-27T20:12:53.741Z,24.85
2019-02-27T20:15:25.153Z,25.20
2019-02-27T20:20:24.771Z,26.97
2019-02-27T20:22:54.726Z,28.70
2019-02-27T20:25:25.214Z,26.95
2019-02-27T20:27:53.812Z,27.05
2019-02-27T20:30:23.413Z,28.00
2019-02-27T20:32:52.000Z,28.35
2019-02-27T20:35:21.567Z,27.48
2019-02-27T20:37:50.280Z,27.37
2019-02-27T20:40:23.119Z,27.30
2019-02-27T20:42:54.831Z,27.32
2019-02-27T20:45:22.903Z,27.93
2019-02-27T20:47:57.849Z,26.93
2019-02-27T20:50:34.990Z,26.85
2019-02-27T20:52:57.153Z,27.60
2019-02-27T20:55:25.737Z,27.65
2019-02-27T20:57:54.218Z,27.42
2019-02-27T21:00:22.902Z,28.47
2019-02-27T21:02:53.474Z,26.75
2019-02-27T21:05:22.015Z,25.55
2019-02-27T21:07:50.497Z,28.73
2019-02-27T21:10:29.508Z,27.40
2019-02-27T21:12:58.019Z,28.00
2019-02-27T21:15:29.328Z,27.30
2019-02-27T21:17:58.542Z,29.25
2019-02-27T21:20:27.442Z,28.23
2019-02-27T21:22:55.923Z,28.38
2019-02-27T21:25:24.607Z,28.50
2019-02-27T21:27:53.092Z,29.15
2019-02-27T21:30:23.617Z,28.52
2019-02-27T21:32:52.208Z,30.23
2019-02-27T21:35:20.786Z,29.25
2019-02-27T21:37:50.913Z,30.37
2019-02-27T21:40:20.104Z,30.92
2019-02-27T21:42:50.841Z,30.80
2019-02-27T21:45:21.583Z,30.37
2019-02-27T21:47:53.310Z,31.07
2019-02-27T21:50:28.469Z,29.77
2019-02-27T21:52:58.645Z,31.02
2019-02-27T21:55:28.196Z,29.45
2019-02-27T21:57:58.290Z,30.97
2019-02-27T22:00:29.590Z,31.57
2019-02-27T22:03:03.861Z,31.02
2019-02-27T22:05:29.796Z,31.30
2019-02-27T22:07:58.994Z,30.27
2019-02-27T22:10:27.477Z,33.40
2019-02-27T22:12:56.520Z,34.67
2019-02-27T22:15:29.151Z,32.98
2019-02-27T22:17:58.285Z,32.15
2019-02-27T22:20:27.343Z,33.67
2019-02-27T22:22:56.131Z,32.85
2019-02-27T22:25:30.241Z,33.67
2019-02-27T22:27:55.548Z,33.80
2019-02-27T22:30:24.776Z,31.68
2019-02-27T22:32:55.497Z,30.85
2019-02-27T22:35:25.310Z,31.48
2019-02-27T22:37:53.978Z,32.38
2019-02-27T22:40:25.405Z,34.27
2019-02-27T22:42:57.263Z,33.63
2019-02-27T22:45:28.899Z,34.40
2019-02-27T22:47:59.604Z,35.95
2019-02-27T22:50:31.334Z,33.55
2019-02-27T22:53:02.425Z,34.18
2019-02-27T22:55:32.022Z,33.28
2019-02-27T23:01:51.129Z,35.00
2019-02-27T23:08:05.156Z,36.53
2019-02-27T23:10:48.155Z,36.88
2019-02-27T23:13:22.547Z,37.05
2019-02-27T23:16:29.787Z,36.28
2019-02-27T23:19:21.645Z,36.58
2019-02-27T23:25:39.140Z,35.00
2019-02-27T23:28:05.054Z,34.83
2019-02-27T23:30:34.777Z,34.75
2019-02-27T23:33:04.201Z,37.10
2019-02-27T23:35:33.317Z,35.95
2019-02-27T23:38:03.412Z,36.85
2019-02-27T23:40:32.386Z,37.15
2019-02-27T23:43:03.281Z,38.25
2019-02-27T23:45:31.190Z,36.85
2019-02-27T23:48:02.197Z,37.63
2019-02-27T23:50:29.790Z,38.40
2019-02-27T23:53:17.830Z,35.98
2019-02-27T23:55:46.415Z,36.65
2019-02-27T23:58:14.899Z,37.70
